Time;durP1;ratioP1;P1;durP2;ratioP2;P2;SDS_P1;SDS_P2;PMS_P1;PMS_P2;Temp;Humidity;BMP_temperature;BMP_pressure;BME280_temperature;BME280_humidity;BME280_pressure;Samples;Min_cycle;Max_cycle;Signal;HPM_P1;HPM_P2
2023/02/16 00:00:48;;;;;;;52.00;24.80;;;;;;;-5.21;98.78;98717.94;110119;1245;58937;-73
2023/02/16 00:03:36;;;;;;;41.40;23.10;;;;;;;-5.30;98.46;98712.90;110105;1245;58906;-73
2023/02/16 00:06:06;;;;;;;;;;;;;;;-5.38;97.73;98716.55;110119;1241;70786;-73
2023/02/16 00:08:36;;;;;;;32.40;18.20;;;;;;;-5.47;98.80;98715.61;110124;1245;67748;-73
2023/02/16 00:14:25;;;;;;;44.40;22.50;;;;;;;-5.56;100.00;98713.11;110300;1244;58946;-72
2023/02/16 00:16:56;;;;;;;42.40;23.00;;;;;;;-5.58;100.00;98712.06;110170;1244;58909;-72
2023/02/16 00:19:34;;;;;;;40.70;22.10;;;;;;;-5.59;100.00;98713.92;110120;1245;70629;-73
2023/02/16 00:22:05;;;;;;;39.40;21.00;;;;;;;-5.62;100.00;98711.02;110170;1245;69096;-73
2023/02/16 00:24:35;;;;;;;34.40;20.10;;;;;;;-5.65;100.00;98709.29;110164;1244;69102;-73
2023/02/16 00:27:14;;;;;;;36.80;21.00;;;;;;;-5.68;100.00;98709.58;110074;1245;58944;-73
2023/02/16 00:29:44;;;;;;;28.50;16.60;;;;;;;-5.71;100.00;98706.31;110109;1245;58843;-73
2023/02/16 00:32:13;;;;;;;;;;;;;;;-5.75;100.00;98701.33;110180;1245;70469;-73
2023/02/16 00:34:45;;;;;;;23.50;12.50;;;;;;;-5.77;100.00;98701.31;109912;1243;68545;-73
2023/02/16 00:37:16;;;;;;;30.30;17.00;;;;;;;-5.79;99.91;98698.05;109762;1244;68570;-73
2023/02/16 00:39:46;;;;;;;29.90;16.20;;;;;;;-5.78;96.72;98694.00;110138;1244;58896;-73
2023/02/16 00:42:20;;;;;;;27.60;14.60;;;;;;;-5.73;96.32;98693.21;110146;1244;58882;-73
2023/02/16 00:44:56;;;;;;;29.80;16.80;;;;;;;-5.70;99.39;98690.52;110268;1244;69880;-73
2023/02/16 00:47:36;;;;;;;29.30;15.50;;;;;;;-5.70;99.41;98693.06;110127;1243;69241;-73
2023/02/16 00:50:23;;;;;;;22.00;14.00;;;;;;;-5.71;99.38;98692.73;109834;1246;68527;-73
2023/02/16 00:52:55;;;;;;;29.90;16.20;;;;;;;-5.73;98.62;98687.60;109799;1245;58890;-73
2023/02/16 00:55:37;;;;;;;27.80;14.90;;;;;;;-5.75;96.91;98685.37;109852;1246;58871;-73
2023/02/16 00:58:16;;;;;;;34.20;17.10;;;;;;;-5.74;96.44;98688.94;110079;1245;70735;-73
2023/02/16 01:00:52;;;;;;;;;;;;;;;-5.76;97.28;98684.86;110107;1245;68742;-73
2023/02/16 01:03:27;;;;;;;35.00;19.20;;;;;;;-5.77;98.36;98683.80;110094;1243;68529;-72
2023/02/16 01:11:35;;;;;;;29.00;16.80;;;;;;;-5.82;98.66;98680.38;110124;1245;70616;-74
2023/02/16 01:14:10;;;;;;;28.60;16.30;;;;;;;-5.81;99.92;98677.16;109860;1241;68425;-72
2023/02/16 01:16:42;;;;;;;30.50;17.90;;;;;;;-5.83;99.74;98673.22;110084;1244;69081;-73
2023/02/16 01:19:12;;;;;;;44.10;21.10;;;;;;;-5.84;98.15;98669.80;110103;1245;58915;-73
2023/02/16 01:21:43;;;;;;;34.40;19.20;;;;;;;-5.84;97.09;98669.80;110105;1244;58950;-73
2023/02/16 01:24:12;;;;;;;32.80;18.60;;;;;;;-5.86;97.44;98666.39;110143;1244;70525;-73
2023/02/16 01:26:47;;;;;;;26.80;16.60;;;;;;;-5.88;97.73;98661.43;110066;1244;68516;-74
2023/02/16 01:29:19;;;;;;;26.60;15.00;;;;;;;-5.91;98.62;98658.70;110054;1245;68696;-73
2023/02/16 01:31:51;;;;;;;19.50;12.80;;;;;;;-5.95;98.11;98654.27;110131;1242;58950;-73
2023/02/16 01:34:21;;;;;;;43.70;23.30;;;;;;;-5.96;99.08;98649.64;110082;1245;58897;-73
2023/02/16 01:36:51;;;;;;;;;;;;;;;-5.97;100.00;98647.42;110088;1245;71170;-76
2023/02/16 01:39:21;;;;;;;38.00;19.00;;;;;;;-5.99;100.00;98648.79;109738;1242;69659;-75
2023/02/16 01:41:57;;;;;;;;;;;;;;;-6.02;100.00;98647.70;109886;1246;69289;-73
2023/02/16 01:44:41;;;;;;;32.50;18.20;;;;;;;-6.07;100.00;98643.41;110113;1244;58944;-72
2023/02/16 01:47:41;;;;;;;32.30;18.80;;;;;;;-6.12;100.00;98643.00;109825;1245;58907;-72
2023/02/16 01:50:14;;;;;;;36.00;19.60;;;;;;;-6.14;100.00;98643.84;109818;1245;70629;-72
2023/02/16 01:52:55;;;;;;;27.50;16.20;;;;;;;-6.15;100.00;98643.98;110102;1245;67764;-74
2023/02/16 01:55:35;;;;;;;40.70;22.00;;;;;;;-6.13;100.00;98642.15;110085;1245;69329;-75
2023/02/16 01:58:11;;;;;;;;;;;;;;;-6.13;100.00;98636.71;109761;1243;58947;-73
2023/02/16 02:00:53;;;;;;;44.50;22.70;;;;;;;-6.14;100.00;98637.22;109808;1244;58966;-73
2023/02/16 02:06:29;;;;;;;40.40;20.70;;;;;;;-6.14;100.00;98633.30;109842;1244;69221;-74
2023/02/16 02:09:13;;;;;;;41.70;23.50;;;;;;;-6.15;100.00;98628.72;110120;1244;69194;-74
2023/02/16 02:11:57;;;;;;;41.10;22.80;;;;;;;-6.12;100.00;98630.27;109916;1245;58927;-73
2023/02/16 02:14:35;;;;;;;41.60;20.60;;;;;;;-6.08;100.00;98626.42;109811;1245;58842;-72
2023/02/16 02:17:11;;;;;;;32.40;17.60;;;;;;;-6.07;99.82;98626.60;109900;1245;70414;-73
2023/02/16 02:19:57;;;;;;;35.40;18.90;;;;;;;-6.05;96.95;98622.89;110130;1244;69602;-73
2023/02/16 02:25:43;;;;;;;33.60;19.70;;;;;;;-6.03;93.61;98614.77;110101;1244;58834;-73
2023/02/16 02:28:39;;;;;;;37.20;20.10;;;;;;;-6.00;93.28;98612.27;109934;1246;58868;-74
2023/02/16 02:31:32;;;;;;;34.70;17.60;;;;;;;-5.96;94.27;98611.79;109885;1243;70492;-74
2023/02/16 02:34:16;;;;;;;36.00;18.20;;;;;;;-5.95;95.10;98617.08;110025;1248;68807;-74
2023/02/16 02:37:04;;;;;;;33.30;19.60;;;;;;;-5.96;95.35;98615.88;109943;1247;68336;-73
2023/02/16 02:39:46;;;;;;;38.00;21.70;;;;;;;-5.99;96.37;98618.22;110170;1245;58942;-73
2023/02/16 02:42:38;;;;;;;36.50;19.90;;;;;;;-6.02;98.49;98613.08;109916;1245;59009;-73
2023/02/16 02:45:42;;;;;;;40.40;21.60;;;;;;;-6.05;99.20;98615.42;110095;1242;69842;-73
2023/02/16 02:48:12;;;;;;;37.40;19.10;;;;;;;-6.09;99.94;98614.36;109972;1243;69478;-73
2023/02/16 02:53:48;;;;;;;32.50;18.60;;;;;;;-6.12;98.51;98612.63;109786;1247;58907;-74
2023/02/16 03:02:00;;;;;;;28.30;16.50;;;;;;;-6.17;97.72;98604.76;109818;1242;69174;-74
2023/02/16 03:04:32;;;;;;;33.80;18.00;;;;;;;-6.19;97.10;98597.95;109734;1247;69341;-73
2023/02/16 03:07:05;;;;;;;31.60;17.10;;;;;;;-6.22;97.13;98598.76;109962;1245;58941;-73
2023/02/16 03:09:35;;;;;;;27.90;17.00;;;;;;;-6.30;97.38;98594.93;109894;1243;58878;-74
2023/02/16 03:15:00;;;;;;;39.30;21.50;;;;;;;-6.37;99.25;98598.39;109744;1246;69274;-73
2023/02/16 03:31:40;;;;;;;;;;;;;;;-6.47;100.00;98593.35;109933;1245;68549;-73
2023/02/16 03:34:11;;;;;;;29.60;17.00;;;;;;;-6.46;100.00;98587.93;109852;1244;58939;-73
2023/02/16 03:36:43;;;;;;;38.70;23.50;;;;;;;-6.48;100.00;98587.21;109795;1247;58906;-73
2023/02/16 03:39:13;;;;;;;37.70;21.20;;;;;;;-6.51;100.00;98589.21;109723;1246;70518;-74
2023/02/16 03:41:50;;;;;;;47.20;26.80;;;;;;;-6.57;100.00;98588.44;109707;1246;69279;-73
2023/02/16 03:44:20;;;;;;;51.60;27.00;;;;;;;-6.66;100.00;98592.05;109932;1247;69744;-73
2023/02/16 03:46:51;;;;;;;48.40;26.60;;;;;;;-6.74;100.00;98593.98;109961;1244;58902;-73
2023/02/16 03:49:20;;;;;;;51.50;26.70;;;;;;;-6.86;99.53;98588.38;109940;1244;58911;-73
2023/02/16 03:51:50;;;;;;;39.80;23.10;;;;;;;-6.96;98.96;98586.85;109775;1245;69918;-73
2023/02/16 03:54:20;;;;;;;33.90;18.40;;;;;;;-7.03;99.09;98583.52;109744;1246;69845;-73
2023/02/16 03:56:50;;;;;;;43.70;24.10;;;;;;;-7.07;99.43;98584.83;109858;1247;68329;-73
2023/02/16 03:59:20;;;;;;;42.40;24.50;;;;;;;-7.09;99.87;98585.80;110048;1245;58892;-73
2023/02/16 04:01:51;;;;;;;40.50;22.70;;;;;;;-7.08;100.00;98589.03;109792;1246;58962;-74
2023/02/16 04:04:21;;;;;;;38.40;22.00;;;;;;;-7.09;100.00;98586.83;110022;1245;69770;-74
2023/02/16 04:06:51;;;;;;;48.10;24.80;;;;;;;-7.10;100.00;98584.63;110089;1245;69829;-73
2023/02/16 04:09:20;;;;;;;52.80;29.30;;;;;;;-7.10;100.00;98582.41;110079;1247;69702;-73
2023/02/16 04:14:37;;;;;;;42.80;23.30;;;;;;;-7.08;100.00;98582.43;110146;1251;58883;-75
2023/02/16 04:17:10;;;;;;;55.00;27.70;;;;;;;-7.07;100.00;98581.27;110088;1245;70825;-73
2023/02/16 04:19:40;;;;;;;;;;;;;;;-7.07;100.00;98578.89;110068;1245;69454;-73
2023/02/16 04:22:10;;;;;;;44.40;22.20;;;;;;;-7.09;100.00;98575.13;110148;1246;69498;-73
2023/02/16 04:24:40;;;;;;;41.30;23.00;;;;;;;-7.11;100.00;98574.26;110138;1244;58950;-73
2023/02/16 04:27:11;;;;;;;45.40;24.00;;;;;;;-7.14;100.00;98573.36;110073;1245;58827;-73
2023/02/16 04:29:40;;;;;;;47.70;24.30;;;;;;;-7.16;100.00;98573.51;110071;1245;70475;-73
2023/02/16 04:32:11;;;;;;;43.60;23.50;;;;;;;-7.13;100.00;98573.38;110187;1242;69345;-73
2023/02/16 04:34:42;;;;;;;44.90;24.80;;;;;;;-7.13;100.00;98576.59;110098;1244;69477;-73
2023/02/16 04:37:11;;;;;;;53.20;26.30;;;;;;;-7.16;100.00;98574.52;110125;1246;58930;-73
2023/02/16 04:39:41;;;;;;;;;;;;;;;-7.18;100.00;98573.64;110187;1245;58881;-73
2023/02/16 04:42:11;;;;;;;45.10;24.50;;;;;;;-7.22;100.00;98572.23;110009;1245;69774;-73
2023/02/16 04:44:40;;;;;;;42.90;22.30;;;;;;;-7.25;100.00;98574.72;110102;1251;69114;-73
2023/02/16 04:47:10;;;;;;;39.90;23.70;;;;;;;-7.27;100.00;98572.98;109937;1247;69699;-73
2023/02/16 04:49:41;;;;;;;47.10;23.20;;;;;;;-7.30;100.00;98573.45;109742;1244;58919;-73
2023/02/16 04:52:12;;;;;;;58.00;30.00;;;;;;;-7.31;100.00;98573.59;110213;1245;58833;-74
2023/02/16 04:54:42;;;;;;;51.60;26.40;;;;;;;-7.32;100.00;98574.09;109921;1245;71174;-74
2023/02/16 04:57:11;;;;;;;46.20;23.70;;;;;;;-7.34;100.00;98576.59;109996;1245;69678;-74
2023/02/16 04:59:42;;;;;;;47.00;24.80;;;;;;;-7.35;99.79;98575.55;110103;1245;69300;-73
2023/02/16 05:02:11;;;;;;;48.60;25.10;;;;;;;-7.39;99.62;98572.13;110193;1245;58940;-73
2023/02/16 05:04:41;;;;;;;46.70;21.70;;;;;;;-7.41;98.99;98570.20;110103;1247;58849;-74
2023/02/16 05:07:11;;;;;;;44.80;22.60;;;;;;;-7.41;99.37;98573.77;110152;1244;71248;-73
2023/02/16 05:09:41;;;;;;;39.00;24.00;;;;;;;-7.41;100.00;98574.61;110163;1244;68706;-74
2023/02/16 05:14:58;;;;;;;34.90;18.90;;;;;;;-7.34;100.00;98570.00;110128;1245;58902;-73
2023/02/16 05:17:28;;;;;;;47.20;22.00;;;;;;;-7.32;100.00;98570.20;110099;1244;58870;-74
2023/02/16 05:19:59;;;;;;;;;;;;;;;-7.32;100.00;98569.86;109852;1246;70411;-73
2023/02/16 05:22:32;;;;;;;39.40;21.00;;;;;;;-7.31;100.00;98571.89;109748;1246;69587;-74
2023/02/16 05:25:01;;;;;;;29.30;16.30;;;;;;;-7.30;100.00;98577.35;110127;1247;69905;-74
2023/02/16 05:27:31;;;;;;;32.80;19.40;;;;;;;-7.29;100.00;98574.33;110112;1245;59734;-73
2023/02/16 05:29:59;;;;;;;32.40;16.80;;;;;;;-7.28;100.00;98574.33;110184;1253;59621;-74
2023/02/16 05:32:28;;;;;;;39.00;22.80;;;;;;;-7.26;100.00;98577.92;110257;1242;71890;-74
2023/02/16 05:34:58;;;;;;;52.20;28.40;;;;;;;-7.23;100.00;98576.11;110253;1245;68757;-74
2023/02/16 05:37:27;;;;;;;45.20;23.80;;;;;;;-7.18;100.00;98579.91;110170;1241;68529;-74
2023/02/16 05:39:56;;;;;;;59.20;30.90;;;;;;;-7.15;100.00;98581.31;110188;1247;59742;-74
2023/02/16 05:42:26;;;;;;;51.20;27.50;;;;;;;-7.10;100.00;98585.29;110158;1245;59686;-74
2023/02/16 05:44:55;;;;;;;41.40;23.70;;;;;;;-7.07;100.00;98585.33;110112;1245;71258;-74
2023/02/16 05:47:24;;;;;;;41.00;21.00;;;;;;;-7.05;100.00;98583.85;110132;1244;69351;-73
2023/02/16 05:49:53;;;;;;;42.70;24.40;;;;;;;-7.02;100.00;98583.91;110154;1245;69813;-74
2023/02/16 05:52:22;;;;;;;45.30;23.50;;;;;;;-6.97;100.00;98584.16;110087;1252;59673;-73
2023/02/16 05:54:51;;;;;;;64.00;30.70;;;;;;;-6.90;100.00;98585.94;110202;1245;59779;-73
2023/02/16 05:57:20;;;;;;;41.20;22.30;;;;;;;-6.82;100.00;98590.13;110160;1246;70657;-74
2023/02/16 05:59:49;;;;;;;60.60;33.60;;;;;;;-6.74;100.00;98594.33;110100;1245;69636;-74
2023/02/16 06:02:18;;;;;;;56.90;30.90;;;;;;;-6.61;100.00;98598.05;110079;1244;69094;-71
2023/02/16 06:04:47;;;;;;;59.90;34.40;;;;;;;-6.53;100.00;98600.38;110133;1244;59758;-72
2023/02/16 06:07:16;;;;;;;65.40;33.80;;;;;;;-6.43;100.00;98592.04;110100;1246;59745;-72
2023/02/16 06:09:46;;;;;;;45.00;25.50;;;;;;;-6.33;100.00;98594.04;110154;1252;70625;-72
2023/02/16 06:12:15;;;;;;;45.60;23.10;;;;;;;-6.25;100.00;98589.73;110157;1246;68756;-72
2023/02/16 06:14:43;;;;;;;47.80;25.30;;;;;;;-6.19;99.93;98589.30;110310;1245;69142;-72
2023/02/16 06:17:12;;;;;;;61.10;33.10;;;;;;;-6.12;98.68;98588.17;110214;1245;59762;-72
2023/02/16 06:19:41;;;;;;;49.10;28.30;;;;;;;-6.06;98.66;98586.73;110171;1244;59671;-75
2023/02/16 06:22:10;;;;;;;62.20;35.60;;;;;;;-5.97;98.82;98587.85;110106;1243;70845;-74
2023/02/16 06:24:40;;;;;;;52.10;29.20;;;;;;;-5.88;98.56;98590.14;109998;1245;68529;-73
2023/02/16 06:27:09;;;;;;;65.80;39.80;;;;;;;-5.78;98.60;98592.45;110048;1245;69678;-74
2023/02/16 06:29:38;;;;;;;59.00;36.10;;;;;;;-5.70;99.27;98597.13;110192;1245;59686;-73
2023/02/16 06:32:07;;;;;;;57.70;34.80;;;;;;;-5.61;97.41;98595.86;110145;1245;59666;-74
2023/02/16 06:34:36;;;;;;;83.20;49.50;;;;;;;-5.53;96.59;98597.64;110119;1245;71390;-73
2023/02/16 06:37:07;;;;;;;78.00;44.50;;;;;;;-5.45;96.15;98592.96;110284;1244;68617;-74
2023/02/16 06:39:36;;;;;;;81.40;50.20;;;;;;;-5.37;95.80;98595.75;110119;1245;69876;-74
2023/02/16 06:42:05;;;;;;;70.50;45.60;;;;;;;-5.27;97.67;98592.79;110129;1244;59681;-72
2023/02/16 06:44:37;;;;;;;69.40;40.50;;;;;;;-5.14;97.92;98594.59;110058;1244;59699;-72
2023/02/16 06:47:06;;;;;;;65.80;38.30;;;;;;;-4.95;98.44;98596.11;110015;1246;70652;-74
2023/02/16 06:49:35;;;;;;;57.20;34.40;;;;;;;-4.73;98.31;98598.14;110020;1245;68507;-72
2023/02/16 06:52:04;;;;;;;62.80;38.10;;;;;;;-4.52;97.88;98597.42;110113;1247;69950;-73
2023/02/16 06:54:33;;;;;;;57.30;38.40;;;;;;;-4.29;97.94;98596.02;110145;1246;59748;-72
2023/02/16 06:57:02;;;;;;;59.80;37.90;;;;;;;-4.12;96.79;98593.05;110096;1245;59682;-72
2023/02/16 06:59:32;;;;;;;64.90;37.60;;;;;;;-3.87;96.57;98591.78;110129;1245;71464;-73
2023/02/16 07:02:00;;;;;;;59.80;37.30;;;;;;;-3.61;96.43;98594.39;110134;1245;69853;-73
2023/02/16 07:04:29;;;;;;;58.20;34.90;;;;;;;-3.37;94.65;98595.14;109923;1244;68734;-73
2023/02/16 07:06:58;;;;;;;44.30;25.90;;;;;;;-3.10;93.98;98590.21;110093;1244;60210;-73
2023/02/16 07:09:27;;;;;;;39.80;23.70;;;;;;;-2.81;93.21;98588.67;110096;1245;59692;-73
2023/02/16 07:11:57;;;;;;;38.30;22.50;;;;;;;-2.49;91.87;98586.93;110255;1246;70682;-74
2023/02/16 07:14:30;;;;;;;39.00;23.40;;;;;;;-2.15;92.00;98584.45;110152;1244;69256;-75
2023/02/16 07:17:02;;;;;;;39.90;24.90;;;;;;;-1.84;91.92;98584.16;109790;1246;69905;-75
2023/02/16 07:19:32;;;;;;;49.20;28.30;;;;;;;-1.62;88.19;98580.79;110191;1245;59747;-75
2023/02/16 07:33:53;;;;;;;54.00;38.30;;;;;;;0.08;79.94;98581.27;107406;1267;609853;-73
2023/02/16 07:36:21;;;;;;;56.90;38.40;;;;;;;0.43;76.75;98581.57;108986;1257;208785;-72
2023/02/16 07:38:50;;;;;;;45.90;32.90;;;;;;;0.73;75.46;98580.45;109276;1254;57683;-70
2023/02/16 07:41:20;;;;;;;46.20;31.00;;;;;;;1.13;74.21;98578.48;109340;1251;68978;-70
2023/02/16 07:43:48;;;;;;;52.40;37.70;;;;;;;1.29;72.33;98574.41;109395;1254;69863;-71
2023/02/16 07:58:57;;;;;;;41.50;32.70;;;;;;;2.64;67.46;98566.33;107248;1271;609653;-72
2023/02/16 08:01:28;;;;;;;46.50;35.70;;;;;;;2.89;66.82;98568.24;108973;1254;209195;-72
2023/02/16 08:03:59;;;;;;;47.20;34.10;;;;;;;3.45;65.08;98564.98;109229;1254;57712;-72
2023/02/16 08:06:28;;;;;;;48.40;38.30;;;;;;;3.71;64.87;98564.44;109202;1254;69174;-72
2023/02/16 08:08:58;;;;;;;44.80;36.20;;;;;;;3.80;63.55;98563.37;109093;1254;69780;-73
2023/02/16 08:11:27;;;;;;;50.20;36.20;;;;;;;4.27;62.06;98563.42;109109;1254;69872;-70
2023/02/16 08:13:59;;;;;;;44.20;34.10;;;;;;;4.19;61.87;98560.02;109174;1254;57713;-71
2023/02/16 08:16:31;;;;;;;44.60;33.70;;;;;;;4.84;61.61;98562.73;109346;1254;57700;-73
2023/02/16 08:19:02;;;;;;;44.90;32.90;;;;;;;5.29;60.62;98558.85;109102;1254;68999;-70
2023/02/16 08:21:33;;;;;;;40.80;31.70;;;;;;;4.91;60.52;98567.33;109143;1254;69672;-70
2023/02/16 08:24:07;;;;;;;37.20;29.40;;;;;;;4.70;61.07;98568.00;109769;1244;68868;-70
2023/02/16 08:26:39;;;;;;;48.90;36.90;;;;;;;5.13;59.76;98568.19;109781;1246;58066;-71
2023/02/16 08:29:09;;;;;;;37.90;29.60;;;;;;;5.71;58.89;98565.19;109829;1243;58201;-71
2023/02/16 08:31:38;;;;;;;40.20;29.10;;;;;;;6.12;58.34;98560.14;109801;1245;69013;-70
2023/02/16 08:34:08;;;;;;;33.20;26.50;;;;;;;6.72;56.79;98559.43;109902;1245;69795;-72
2023/02/16 08:36:38;;;;;;;;;;;;;;;7.21;54.97;98556.63;109778;1245;68355;-71
2023/02/16 08:39:17;;;;;;;35.50;26.70;;;;;;;7.35;53.85;98557.06;110060;1245;58182;-71
2023/02/16 08:41:48;;;;;;;32.00;24.70;;;;;;;7.39;54.07;98557.08;109839;1243;58137;-71
2023/02/16 08:44:21;;;;;;;31.40;24.30;;;;;;;7.74;53.20;98559.38;110012;1245;69453;-70
2023/02/16 08:46:52;;;;;;;29.50;24.60;;;;;;;7.48;53.37;98557.38;109798;1243;69413;-70
2023/02/16 08:49:22;;;;;;;29.30;22.00;;;;;;;7.75;51.96;98557.81;109849;1243;69632;-70
2023/02/16 08:51:55;;;;;;;24.60;20.10;;;;;;;7.34;52.56;98556.92;109909;1245;58134;-70
2023/02/16 08:54:27;;;;;;;24.30;18.80;;;;;;;7.87;51.58;98554.84;110017;1244;58093;-70
2023/02/16 08:56:57;;;;;;;25.80;20.10;;;;;;;8.19;51.20;98556.90;110009;1245;69860;-71
2023/02/16 09:15:42;;;;;;;18.80;15.70;;;;;;;9.94;47.30;98545.66;107142;1269;609679;-71
2023/02/16 09:18:13;;;;;;;21.30;16.60;;;;;;;10.07;46.09;98543.92;108586;1254;407233;-70
2023/02/16 09:20:43;;;;;;;23.50;18.60;;;;;;;9.75;46.75;98544.05;109272;1254;58090;-71
2023/02/16 09:23:14;;;;;;;19.90;16.00;;;;;;;9.97;46.15;98544.63;109236;1253;69387;-72
2023/02/16 09:25:43;;;;;;;24.30;17.80;;;;;;;10.22;46.22;98540.16;109223;1253;69869;-71
2023/02/16 09:28:12;;;;;;;20.60;16.30;;;;;;;10.57;45.54;98543.02;109105;1254;69107;-71
2023/02/16 09:30:41;;;;;;;22.10;18.00;;;;;;;9.92;45.88;98537.22;109134;1253;57725;-70
2023/02/16 09:33:10;;;;;;;23.40;17.90;;;;;;;9.81;46.34;98538.30;109138;1254;58037;-71
2023/02/16 09:35:39;;;;;;;24.90;19.40;;;;;;;9.59;47.43;98537.70;109136;1253;69993;-70
2023/02/16 09:38:09;;;;;;;22.80;17.80;;;;;;;10.61;45.90;98533.19;109172;1253;69061;-70
2023/02/16 09:40:40;;;;;;;28.20;20.60;;;;;;;10.09;45.73;98530.58;109118;1253;69270;-71
2023/02/16 09:43:45;;;;;;;27.00;19.60;;;;;;;10.85;44.89;98527.69;109093;1254;58142;-71
2023/02/16 09:46:19;;;;;;;24.00;16.70;;;;;;;10.21;45.55;98528.41;109114;1253;58206;-70
2023/02/16 09:48:51;;;;;;;21.60;16.90;;;;;;;10.68;44.87;98530.70;109167;1253;70650;-71
2023/02/16 09:51:26;;;;;;;24.50;19.40;;;;;;;11.23;44.55;98519.07;109131;1253;69298;-70
2023/02/16 09:54:29;;;;;;;21.30;16.20;;;;;;;11.61;43.31;98520.15;109127;1253;68853;-71
2023/02/16 09:57:19;;;;;;;23.80;18.70;;;;;;;10.97;44.00;98518.77;110100;1244;58046;-71
2023/02/16 09:59:51;;;;;;;22.80;17.90;;;;;;;11.38;43.11;98515.41;110155;1244;58092;-71
2023/02/16 10:02:32;;;;;;;23.50;18.30;;;;;;;11.03;43.98;98516.36;110147;1241;70186;-71
2023/02/16 10:05:11;;;;;;;24.30;18.40;;;;;;;11.47;42.89;98510.16;110106;1241;69626;-71
2023/02/16 10:07:45;;;;;;;21.90;17.40;;;;;;;11.85;41.92;98511.38;110062;1241;68376;-71
2023/02/16 10:10:21;;;;;;;23.20;17.90;;;;;;;12.41;41.47;98511.61;110118;1241;58099;-70
2023/02/16 10:12:59;;;;;;;20.20;15.80;;;;;;;12.86;40.60;98505.92;110159;1241;58179;-71
2023/02/16 10:15:30;;;;;;;24.40;18.90;;;;;;;12.87;39.51;98500.14;110131;1244;69553;-71
2023/02/16 10:18:21;;;;;;;21.30;16.40;;;;;;;12.15;40.45;98498.77;110138;1244;69799;-70
2023/02/16 10:20:53;;;;;;;23.30;18.10;;;;;;;12.39;40.08;98492.67;110099;1244;69691;-71
2023/02/16 10:23:37;;;;;;;20.60;16.90;;;;;;;13.04;38.90;98487.45;110094;1244;58151;-73
2023/02/16 10:26:13;;;;;;;19.30;15.10;;;;;;;13.04;38.98;98481.33;110076;1244;58066;-72
2023/02/16 10:28:46;;;;;;;20.60;16.00;;;;;;;12.94;38.84;98475.34;110075;1243;69773;-71
2023/02/16 10:31:42;;;;;;;18.90;14.80;;;;;;;13.49;38.50;98475.88;109768;1244;69689;-71
2023/02/16 10:34:34;;;;;;;21.20;17.00;;;;;;;14.43;36.68;98469.90;109817;1244;69862;-71
2023/02/16 10:37:22;;;;;;;19.40;14.80;;;;;;;13.92;36.82;98464.17;110089;1241;58126;-72
2023/02/16 10:39:57;;;;;;;19.30;14.70;;;;;;;14.25;37.06;98459.08;110079;1244;58085;-72
2023/02/16 10:42:26;;;;;;;22.30;16.90;;;;;;;13.24;37.40;98458.05;110111;1241;70332;-73
2023/02/16 10:45:14;;;;;;;17.20;13.50;;;;;;;13.28;37.68;98454.52;110138;1243;69221;-70
2023/02/16 10:47:46;;;;;;;21.50;15.80;;;;;;;14.82;36.27;98448.65;110085;1241;69432;-71
2023/02/16 10:50:28;;;;;;;20.00;17.30;;;;;;;14.08;36.32;98442.38;110074;1244;58074;-71
2023/02/16 10:53:01;;;;;;;20.10;16.60;;;;;;;13.72;36.98;98439.90;110083;1241;58100;-70
2023/02/16 10:55:30;;;;;;;19.80;16.20;;;;;;;13.85;36.76;98438.03;110083;1241;69363;-71
2023/02/16 10:58:00;;;;;;;17.90;13.50;;;;;;;13.71;37.30;98433.89;110088;1244;69681;-73
2023/02/16 11:00:52;;;;;;;18.20;14.40;;;;;;;14.16;36.50;98432.39;110059;1245;69274;-72
2023/02/16 11:03:24;;;;;;;18.20;14.60;;;;;;;14.28;36.35;98423.80;110047;1243;58089;-70
2023/02/16 11:05:54;;;;;;;18.40;14.30;;;;;;;14.04;36.46;98424.11;110203;1242;58079;-71
2023/02/16 11:08:24;;;;;;;17.30;14.50;;;;;;;13.53;37.04;98420.28;110177;1241;69611;-72
2023/02/16 11:10:54;;;;;;;17.80;14.70;;;;;;;12.98;38.33;98419.23;110157;1242;69813;-71
2023/02/16 11:13:31;;;;;;;18.00;15.60;;;;;;;14.05;37.32;98413.83;110119;1244;69236;-72
2023/02/16 11:16:18;;;;;;;19.70;14.70;;;;;;;14.37;36.60;98409.09;110099;1243;58221;-70
2023/02/16 11:19:15;;;;;;;18.10;14.50;;;;;;;13.09;38.12;98407.66;110134;1241;58134;-71
2023/02/16 11:21:57;;;;;;;18.30;14.40;;;;;;;14.55;36.00;98410.23;110042;1242;70366;-71
2023/02/16 11:24:32;;;;;;;17.30;13.20;;;;;;;15.04;34.74;98403.45;110116;1244;69233;-71
2023/02/16 11:27:12;;;;;;;16.70;12.40;;;;;;;13.96;36.61;98402.20;110090;1242;69272;-70
2023/02/16 11:29:41;;;;;;;;;;;;;;;13.74;36.60;98394.77;110166;1243;58145;-70
2023/02/16 11:32:12;;;;;;;17.30;13.90;;;;;;;14.44;36.33;98395.95;110135;1244;58140;-71
2023/02/16 11:34:49;;;;;;;18.20;13.80;;;;;;;14.64;35.20;98397.29;110129;1243;69647;-71
2023/02/16 11:37:32;;;;;;;18.30;13.90;;;;;;;15.20;35.04;98395.00;110114;1243;69849;-70
2023/02/16 11:40:22;;;;;;;18.60;14.80;;;;;;;16.30;33.52;98389.27;110119;1244;69879;-72
2023/02/16 11:42:54;;;;;;;18.30;13.90;;;;;;;16.18;33.05;98388.65;110107;1241;58122;-72
2023/02/16 11:45:25;;;;;;;17.50;14.30;;;;;;;15.84;33.35;98388.40;110135;1243;58164;-70
2023/02/16 11:48:16;;;;;;;20.20;16.10;;;;;;;15.40;34.17;98387.38;110099;1241;70416;-70
2023/02/16 11:51:01;;;;;;;18.90;14.50;;;;;;;14.35;35.43;98387.21;110117;1241;69227;-71
2023/02/16 11:53:34;;;;;;;18.70;14.50;;;;;;;13.86;36.34;98388.00;110121;1241;67887;-71
2023/02/16 11:56:27;;;;;;;19.40;14.90;;;;;;;14.05;36.51;98383.33;110108;1243;58141;-71
2023/02/16 11:59:25;;;;;;;19.00;14.90;;;;;;;14.60;35.44;98385.52;110135;1243;58084;-72
2023/02/16 12:02:12;;;;;;;20.00;15.50;;;;;;;14.99;35.07;98382.98;110121;1241;69789;-71
2023/02/16 12:04:56;;;;;;;20.90;15.20;;;;;;;15.30;34.62;98382.22;110128;1244;69792;-71
2023/02/16 12:07:31;;;;;;;20.00;15.90;;;;;;;15.57;34.35;98379.33;110081;1243;69256;-70
2023/02/16 12:10:21;;;;;;;19.20;13.60;;;;;;;16.52;33.49;98370.61;110076;1245;58075;-70
2023/02/16 12:13:08;;;;;;;19.40;16.40;;;;;;;16.65;32.96;98361.23;110106;1242;58078;-71
2023/02/16 12:16:26;;;;;;;18.70;15.40;;;;;;;16.62;32.32;98357.96;110100;1244;69754;-70
2023/02/16 12:18:58;;;;;;;15.90;13.00;;;;;;;16.41;33.19;98352.48;109527;1248;69046;-72
2023/02/16 12:21:40;;;;;;;20.50;15.40;;;;;;;16.87;32.34;98346.88;109956;1244;69489;-72
2023/02/16 12:24:16;;;;;;;21.40;16.50;;;;;;;16.49;32.98;98344.46;110088;1244;58484;-70
2023/02/16 12:27:02;;;;;;;20.10;17.10;;;;;;;16.45;32.36;98347.58;110111;1244;58088;-72
2023/02/16 12:30:03;;;;;;;18.20;14.50;;;;;;;16.34;33.01;98347.02;110124;1244;69780;-71
2023/02/16 12:32:44;;;;;;;25.50;19.00;;;;;;;16.11;33.46;98345.48;109929;1244;69773;-72
2023/02/16 12:35:23;;;;;;;20.50;15.70;;;;;;;15.71;33.88;98347.23;110106;1243;69769;-70
2023/02/16 12:38:02;;;;;;;28.00;22.80;;;;;;;16.59;32.87;98334.09;110082;1244;58142;-70
2023/02/16 12:40:42;;;;;;;26.40;20.10;;;;;;;17.02;32.80;98330.69;110068;1244;58053;-71
2023/02/16 12:43:50;;;;;;;26.80;21.20;;;;;;;17.37;32.23;98327.88;110100;1243;70271;-71
2023/02/16 12:46:27;;;;;;;26.90;21.70;;;;;;;18.17;30.94;98321.11;109853;1242;69274;-71
2023/02/16 12:49:13;;;;;;;23.60;17.20;;;;;;;18.13;31.02;98318.06;110099;1241;69878;-70
2023/02/16 12:51:50;;;;;;;22.70;17.60;;;;;;;18.60;29.84;98313.88;110075;1243;58084;-72
2023/02/16 12:54:28;;;;;;;25.20;20.90;;;;;;;18.39;30.06;98311.21;110069;1244;58081;-71
2023/02/16 12:57:13;;;;;;;21.70;16.50;;;;;;;18.16;30.70;98306.91;110100;1242;70396;-71
2023/02/16 13:00:08;;;;;;;21.90;17.50;;;;;;;18.48;30.15;98305.40;110126;1241;68491;-72
2023/02/16 13:02:46;;;;;;;23.50;19.90;;;;;;;17.96;30.39;98301.09;110064;1243;69079;-71
2023/02/16 13:05:28;;;;;;;21.90;18.90;;;;;;;17.49;31.09;98299.91;110086;1244;58070;-71
2023/02/16 13:08:16;;;;;;;22.00;17.80;;;;;;;17.73;30.94;98297.63;110142;1244;58137;-72
2023/02/16 13:11:10;;;;;;;20.20;16.30;;;;;;;18.01;30.77;98296.27;110101;1243;69760;-71
2023/02/16 13:13:41;;;;;;;17.90;15.00;;;;;;;17.27;32.13;98296.20;110151;1242;68482;-71